createdAt,value
2022-10-11T00:00:13.413Z,91.20
2022-10-11T00:02:40.298Z,99.10
2022-10-11T00:05:08.452Z,95.10
2022-10-11T00:07:37.965Z,94.60
2022-10-11T00:10:07.206Z,80.50
2022-10-11T00:12:34.293Z,90.10
2022-10-11T00:15:01.372Z,90.60
2022-10-11T00:17:28.159Z,96.50
2022-10-11T00:19:54.953Z,88.00
2022-10-11T00:22:21.795Z,80.40
2022-10-11T00:24:48.610Z,68.60
2022-10-11T00:27:15.587Z,86.70
2022-10-11T00:29:42.304Z,88.10
2022-10-11T00:32:09.164Z,84.40
2022-10-11T00:34:35.911Z,87.90
2022-10-11T00:37:03.540Z,79.90
2022-10-11T00:39:30.716Z,78.90
2022-10-11T00:41:57.559Z,80.70
2022-10-11T00:44:27.895Z,82.10
2022-10-11T00:47:17.866Z,83.20
2022-10-11T00:50:01.626Z,74.40
2022-10-11T00:52:38.205Z,73.30
2022-10-11T00:55:18.946Z,75.10
2022-10-11T00:57:50.088Z,76.00
2022-10-11T01:00:17.443Z,72.20
2022-10-11T01:02:44.414Z,73.70
2022-10-11T01:05:30.749Z,77.60
2022-10-11T01:08:00.908Z,78.00
2022-10-11T01:10:29.136Z,80.10
2022-10-11T01:13:30.011Z,78.60
2022-10-11T01:16:34.557Z,81.90
2022-10-11T01:19:32.418Z,75.00
2022-10-11T01:22:36.227Z,78.20
2022-10-11T01:25:22.119Z,71.40
2022-10-11T01:28:09.256Z,81.10
2022-10-11T01:30:37.612Z,81.30
2022-10-11T01:33:21.476Z,72.50
2022-10-11T01:36:02.200Z,77.90
2022-10-11T01:38:44.872Z,75.10
2022-10-11T01:41:22.026Z,67.80
2022-10-11T01:43:52.454Z,68.20
2022-10-11T01:46:20.807Z,65.70
2022-10-11T01:48:53.502Z,64.80
2022-10-11T01:51:25.137Z,79.80
2022-10-11T01:55:08.090Z,72.50
2022-10-11T01:57:59.405Z,72.90
2022-10-11T02:00:40.169Z,62.50
2022-10-11T02:03:41.213Z,70.10
2022-10-11T02:06:20.957Z,68.70
2022-10-11T02:09:23.259Z,47.20
2022-10-11T02:11:50.993Z,41.50
2022-10-11T02:14:25.417Z,64.70
2022-10-11T02:17:07.741Z,54.30
2022-10-11T02:19:52.841Z,58.20
2022-10-11T02:22:29.162Z,47.90
2022-10-11T02:24:59.720Z,56.50
2022-10-11T02:27:30.955Z,56.20
2022-10-11T02:30:01.255Z,51.50
2022-10-11T02:32:30.592Z,54.00
2022-10-11T02:35:00.762Z,55.30
2022-10-11T02:37:40.313Z,60.10
2022-10-11T02:40:28.973Z,59.90
2022-10-11T02:43:02.365Z,52.90
2022-10-11T02:45:36.577Z,49.40
2022-10-11T02:48:06.050Z,40.40
2022-10-11T02:50:33.221Z,48.10
2022-10-11T02:52:59.950Z,57.50
2022-10-11T02:55:26.714Z,55.30
2022-10-11T02:57:53.433Z,58.50
2022-10-11T03:00:20.397Z,53.10
2022-10-11T03:02:47.240Z,51.80
2022-10-11T03:05:14.290Z,50.20
2022-10-11T03:07:41.026Z,52.30
2022-10-11T03:10:09.175Z,46.60
2022-10-11T03:12:35.961Z,45.80
2022-10-11T03:15:02.783Z,48.90
2022-10-11T03:17:36.556Z,41.20
2022-10-11T03:20:06.709Z,49.90
2022-10-11T03:22:33.447Z,46.70
2022-10-11T03:25:04.104Z,44.80
2022-10-11T03:27:32.985Z,50.50
2022-10-11T03:29:59.817Z,49.00
2022-10-11T03:32:27.613Z,43.00
2022-10-11T03:34:54.522Z,46.70
2022-10-11T03:37:21.281Z,44.50
2022-10-11T03:39:48.045Z,45.40
2022-10-11T03:42:15.048Z,43.20
2022-10-11T03:44:42.292Z,51.40
2022-10-11T03:47:09.592Z,47.20
2022-10-11T03:49:40.004Z,49.30
2022-10-11T03:52:09.979Z,41.50
2022-10-11T03:54:36.743Z,40.00
2022-10-11T03:57:03.679Z,29.80
2022-10-11T03:59:30.523Z,20.60
2022-10-11T04:01:57.357Z,29.00
2022-10-11T04:04:24.207Z,35.70
2022-10-11T04:06:51.062Z,22.60
2022-10-11T04:09:17.818Z,26.80
2022-10-11T04:11:44.631Z,37.00
2022-10-11T04:14:11.373Z,32.70
2022-10-11T04:16:38.837Z,43.20
2022-10-11T04:19:06.291Z,43.80
2022-10-11T04:21:33.129Z,51.40
2022-10-11T04:24:00.039Z,32.10
2022-10-11T04:26:27.017Z,25.50
2022-10-11T04:28:54.244Z,31.70
2022-10-11T04:31:21.417Z,30.70
2022-10-11T04:33:48.331Z,40.10
2022-10-11T04:36:15.409Z,31.20
2022-10-11T04:38:42.560Z,25.90
2022-10-11T04:41:12.780Z,22.10
2022-10-11T04:43:40.217Z,22.40
2022-10-11T04:46:08.383Z,16.40
2022-10-11T04:48:36.484Z,16.30
2022-10-11T04:51:03.325Z,15.40
2022-10-11T04:53:30.372Z,16.20
2022-10-11T04:56:04.100Z,12.70
2022-10-11T04:58:33.809Z,13.50
2022-10-11T05:01:01.141Z,13.10
2022-10-11T05:03:28.422Z,14.80
2022-10-11T05:05:55.338Z,13.30
2022-10-11T05:08:25.945Z,15.10
2022-10-11T05:11:01.719Z,13.30
2022-10-11T05:13:29.815Z,12.30
2022-10-11T05:15:57.800Z,11.00
2022-10-11T05:18:24.829Z,10.10
2022-10-11T05:21:28.655Z,11.10
2022-10-11T05:23:56.823Z,10.50
2022-10-11T05:26:26.396Z,11.90
2022-10-11T05:28:54.025Z,12.40
2022-10-11T05:31:21.618Z,12.10
2022-10-11T05:33:48.895Z,10.80
2022-10-11T05:36:16.366Z,11.90
2022-10-11T05:38:43.372Z,9.60
2022-10-11T05:41:14.141Z,10.90
2022-10-11T05:43:41.706Z,10.20
2022-10-11T05:46:08.817Z,11.90
2022-10-11T05:48:36.205Z,15.70
2022-10-11T05:51:06.904Z,14.70
2022-10-11T05:53:33.950Z,14.90
2022-10-11T05:56:01.153Z,11.60
2022-10-11T05:58:29.129Z,11.60
2022-10-11T06:00:57.191Z,26.00
2022-10-11T06:03:24.598Z,14.30
2022-10-11T06:06:03.191Z,13.70
2022-10-11T06:08:30.875Z,16.10
2022-10-11T06:10:58.385Z,14.20
2022-10-11T06:13:25.175Z,13.60
2022-10-11T06:15:51.939Z,12.10
2022-10-11T06:18:18.758Z,16.60
2022-10-11T06:20:45.600Z,15.70
2022-10-11T06:23:12.646Z,15.30
2022-10-11T06:25:39.401Z,13.80
2022-10-11T06:28:06.127Z,16.40
2022-10-11T06:30:32.826Z,14.10
2022-10-11T06:33:04.468Z,17.60
2022-10-11T06:35:31.626Z,18.40
2022-10-11T06:37:58.349Z,16.30
2022-10-11T06:40:25.022Z,16.20
2022-10-11T06:42:51.792Z,15.90
2022-10-11T06:45:19.041Z,16.70
2022-10-11T06:47:45.890Z,17.30
2022-10-11T06:50:13.857Z,14.20
2022-10-11T06:52:41.001Z,16.20
2022-10-11T06:55:09.009Z,15.50
2022-10-11T06:57:36.017Z,15.30
2022-10-11T07:00:02.940Z,17.30
2022-10-11T07:02:29.703Z,15.40
2022-10-11T07:04:56.443Z,22.40
2022-10-11T07:07:23.425Z,21.50
2022-10-11T07:09:50.133Z,17.10
2022-10-11T07:12:17.186Z,18.60
2022-10-11T07:14:43.916Z,19.60
2022-10-11T07:17:10.656Z,20.70
2022-10-11T07:19:37.472Z,19.70
2022-10-11T07:22:04.749Z,21.10
2022-10-11T07:24:31.465Z,22.00
2022-10-11T07:26:58.331Z,18.00
2022-10-11T07:29:25.253Z,16.90
2022-10-11T07:31:52.018Z,17.20
2022-10-11T07:34:20.804Z,15.90
2022-10-11T07:36:47.652Z,19.10
2022-10-11T07:39:14.692Z,15.40
2022-10-11T07:41:45.674Z,17.10
2022-10-11T07:44:14.165Z,17.80
2022-10-11T07:46:40.943Z,14.30
2022-10-11T07:49:07.801Z,17.10
2022-10-11T07:51:34.639Z,16.00
2022-10-11T07:54:06.182Z,14.50
2022-10-11T07:56:34.588Z,15.30
2022-10-11T07:59:03.613Z,16.40
2022-10-11T08:01:31.182Z,14.80
2022-10-11T08:03:58.330Z,15.00
2022-10-11T08:06:30.699Z,14.70
2022-10-11T08:09:00.265Z,15.60
2022-10-11T08:11:36.666Z,13.10
2022-10-11T08:14:08.794Z,11.70
2022-10-11T08:16:39.927Z,13.60
2022-10-11T08:19:07.454Z,13.10
2022-10-11T08:21:34.983Z,13.40
2022-10-11T08:24:04.409Z,12.90
2022-10-11T08:26:33.348Z,12.30
2022-10-11T08:29:05.315Z,15.00
2022-10-11T08:31:33.926Z,19.70
2022-10-11T08:34:00.726Z,13.40
2022-10-11T08:36:27.677Z,13.70
2022-10-11T08:38:54.397Z,13.20
2022-10-11T08:41:37.236Z,12.00
2022-10-11T08:45:09.406Z,16.70
2022-10-11T08:47:34.126Z,15.00
2022-10-11T08:50:01.564Z,12.30
2022-10-11T08:52:47.240Z,14.30
2022-10-11T08:55:32.391Z,14.20
2022-10-11T08:57:59.652Z,12.00
2022-10-11T09:00:33.362Z,15.00
2022-10-11T09:03:28.674Z,15.30
2022-10-11T09:06:19.986Z,15.80
2022-10-11T09:09:14.488Z,12.30
2022-10-11T09:12:11.529Z,14.20
2022-10-11T09:15:11.548Z,12.70
2022-10-11T09:18:15.688Z,13.40
2022-10-11T09:20:57.254Z,16.60
2022-10-11T09:23:42.017Z,12.70
2022-10-11T09:26:19.021Z,12.90
2022-10-11T09:29:03.218Z,11.60
2022-10-11T09:31:30.607Z,13.20
2022-10-11T09:34:09.115Z,12.10
2022-10-11T09:36:54.492Z,12.80
2022-10-11T09:39:34.034Z,14.30
2022-10-11T09:42:09.033Z,14.60
2022-10-11T09:44:39.802Z,12.80
2022-10-11T09:47:12.589Z,12.40
2022-10-11T09:49:49.358Z,15.90
2022-10-11T09:52:22.038Z,16.20
2022-10-11T09:54:55.228Z,14.20
2022-10-11T09:57:35.587Z,13.30
2022-10-11T10:00:05.585Z,14.40
2022-10-11T10:02:51.488Z,15.00
2022-10-11T10:05:21.731Z,15.20
2022-10-11T10:08:22.862Z,13.60
2022-10-11T10:10:59.668Z,14.00
2022-10-11T10:13:55.193Z,15.10
2022-10-11T10:16:34.309Z,13.10
2022-10-11T10:19:07.727Z,15.90
2022-10-11T10:21:46.982Z,14.00
2022-10-11T10:24:38.636Z,12.90
2022-10-11T10:27:10.403Z,14.40
2022-10-11T10:29:38.058Z,16.70
2022-10-11T10:32:50.160Z,18.20
2022-10-11T10:35:34.540Z,11.70
2022-10-11T10:38:08.830Z,12.40
2022-10-11T10:40:50.723Z,13.60
2022-10-11T10:43:25.354Z,15.30
2022-10-11T10:46:22.505Z,12.00
2022-10-11T10:49:48.855Z,13.50
2022-10-11T10:52:30.839Z,9.80
2022-10-11T10:55:45.196Z,16.30
2022-10-11T10:58:56.752Z,10.50
2022-10-11T11:01:31.081Z,9.80
2022-10-11T11:04:14.125Z,14.60
2022-10-11T11:07:00.014Z,13.10
2022-10-11T11:09:32.897Z,10.90
2022-10-11T11:12:28.002Z,11.00
2022-10-11T11:15:29.227Z,14.00
2022-10-11T11:18:26.006Z,12.90
2022-10-11T11:21:01.458Z,14.40
2022-10-11T11:24:03.711Z,11.20
2022-10-11T11:26:48.577Z,12.90
2022-10-11T11:29:45.526Z,11.40
2022-10-11T11:32:45.805Z,12.30
2022-10-11T11:35:56.625Z,12.90
2022-10-11T11:38:47.031Z,12.70
2022-10-11T11:41:23.485Z,11.00
2022-10-11T11:43:56.179Z,12.80
2022-10-11T11:46:30.506Z,9.10
2022-10-11T11:49:01.942Z,14.30
2022-10-11T11:51:34.829Z,8.80
2022-10-11T11:54:20.194Z,11.40
2022-10-11T11:57:24.208Z,11.30
2022-10-11T12:00:04.567Z,10.60
2022-10-11T12:02:56.377Z,10.90
2022-10-11T12:05:28.255Z,11.10
2022-10-11T12:08:03.779Z,10.10
2022-10-11T12:10:45.798Z,8.70
2022-10-11T12:13:29.727Z,10.20
2022-10-11T12:16:15.527Z,9.60
2022-10-11T12:18:58.142Z,9.30
2022-10-11T12:21:42.193Z,11.00
2022-10-11T12:24:24.312Z,10.40
2022-10-11T12:26:59.116Z,8.30
2022-10-11T12:29:49.017Z,7.80
2022-10-11T12:32:28.256Z,9.10
2022-10-11T12:35:32.554Z,6.20
2022-10-11T12:38:15.677Z,9.70
2022-10-11T12:40:47.198Z,8.00
2022-10-11T12:43:14.308Z,6.20
2022-10-11T12:45:48.192Z,7.90
2022-10-11T12:49:11.062Z,8.00
2022-10-11T12:52:01.071Z,6.50
2022-10-11T12:55:07.739Z,7.90
2022-10-11T12:58:07.573Z,7.50
2022-10-11T13:00:40.223Z,6.30
2022-10-11T13:03:32.562Z,8.30
2022-10-11T13:06:25.594Z,7.90
2022-10-11T13:09:07.695Z,5.90
2022-10-11T13:11:41.094Z,6.70
2022-10-11T13:14:36.501Z,5.30
2022-10-11T13:17:03.753Z,5.10
2022-10-11T13:19:34.279Z,5.10
2022-10-11T13:22:16.586Z,5.70
2022-10-11T13:24:43.941Z,5.10
2022-10-11T13:27:21.134Z,7.00
2022-10-11T13:29:50.530Z,6.70
2022-10-11T13:32:24.244Z,6.60
2022-10-11T13:35:02.542Z,6.60
2022-10-11T13:37:31.433Z,9.40
2022-10-11T13:39:58.963Z,5.90
2022-10-11T13:42:32.067Z,5.40
2022-10-11T13:45:00.314Z,8.10
2022-10-11T13:47:32.171Z,5.80
2022-10-11T13:50:30.502Z,5.40
2022-10-11T13:53:09.630Z,5.80
2022-10-11T13:55:42.509Z,5.30
2022-10-11T13:58:45.090Z,6.30
2022-10-11T14:01:27.978Z,7.30
2022-10-11T14:04:11.442Z,6.60
2022-10-11T14:06:59.791Z,6.60
2022-10-11T14:09:34.305Z,6.00
2022-10-11T14:12:43.368Z,6.50
2022-10-11T14:15:34.581Z,6.60
2022-10-11T14:18:23.207Z,6.40
2022-10-11T14:20:50.052Z,5.70
2022-10-11T14:23:16.894Z,5.20
2022-10-11T14:25:43.653Z,6.70
2022-10-11T14:28:13.943Z,6.70
2022-10-11T14:30:43.360Z,7.30
2022-10-11T14:33:12.046Z,6.10
2022-10-11T14:35:38.989Z,6.10
2022-10-11T14:38:05.738Z,9.30
2022-10-11T14:40:32.675Z,6.70
2022-10-11T14:42:59.418Z,5.40
2022-10-11T14:45:26.263Z,6.90
2022-10-11T14:47:53.100Z,6.80
2022-10-11T14:50:35.305Z,6.80
2022-10-11T14:53:03.760Z,5.40
2022-10-11T14:55:31.360Z,6.30
2022-10-11T14:57:58.619Z,5.50
2022-10-11T15:00:29.142Z,6.50
2022-10-11T15:02:57.018Z,8.80
2022-10-11T15:05:33.405Z,7.40
2022-10-11T15:08:02.555Z,10.00
2022-10-11T15:10:41.354Z,15.00
2022-10-11T15:13:09.240Z,16.80
2022-10-11T15:15:40.898Z,11.30
2022-10-11T15:18:13.072Z,9.60
2022-10-11T15:20:43.986Z,7.90
2022-10-11T15:23:11.511Z,7.30
2022-10-11T15:25:40.609Z,8.90
2022-10-11T15:28:27.920Z,7.10
2022-10-11T15:30:55.825Z,7.10
2022-10-11T15:33:24.120Z,7.20
2022-10-11T15:35:51.392Z,6.30
2022-10-11T15:38:25.276Z,7.80
2022-10-11T15:40:53.422Z,8.50
2022-10-11T15:43:24.466Z,8.70
2022-10-11T15:45:52.466Z,8.70
2022-10-11T15:48:22.995Z,10.70
2022-10-11T15:50:51.113Z,12.80
2022-10-11T15:53:28.863Z,11.70
2022-10-11T15:56:01.733Z,11.80
2022-10-11T15:58:31.149Z,12.70
2022-10-11T16:01:02.089Z,11.70
2022-10-11T16:03:30.365Z,13.10
2022-10-11T16:06:03.837Z,15.40
2022-10-11T16:08:32.579Z,16.30
2022-10-11T16:11:00.333Z,14.30
2022-10-11T16:13:27.543Z,13.10
2022-10-11T16:15:54.405Z,15.00
2022-10-11T16:18:22.686Z,14.00
2022-10-11T16:20:52.517Z,16.40
2022-10-11T16:23:21.927Z,14.00
2022-10-11T16:26:05.362Z,17.10
2022-10-11T16:28:33.373Z,18.60
2022-10-11T16:31:00.970Z,23.10
2022-10-11T16:33:28.005Z,18.30
2022-10-11T16:36:14.715Z,23.20
2022-10-11T16:38:41.455Z,22.60
2022-10-11T16:41:08.193Z,22.70
2022-10-11T16:43:35.035Z,27.10
2022-10-11T16:46:01.803Z,22.50
2022-10-11T16:48:28.505Z,23.80
2022-10-11T16:51:06.725Z,26.10
2022-10-11T16:53:35.420Z,23.50
2022-10-11T16:56:10.436Z,33.10
2022-10-11T16:58:37.698Z,22.90
2022-10-11T17:01:10.259Z,23.40
2022-10-11T17:03:37.767Z,21.80
2022-10-11T17:06:06.361Z,22.10
2022-10-11T17:08:33.466Z,23.80
2022-10-11T17:11:00.610Z,20.20
2022-10-11T17:13:27.859Z,19.80
2022-10-11T17:15:54.602Z,20.30
2022-10-11T17:18:21.345Z,17.00
2022-10-11T17:20:48.184Z,21.70
2022-10-11T17:23:14.904Z,19.30
2022-10-11T17:25:44.276Z,21.10
2022-10-11T17:28:11.535Z,19.30
2022-10-11T17:30:41.846Z,22.30
2022-10-11T17:33:09.393Z,23.30
2022-10-11T17:35:36.141Z,28.60
2022-10-11T17:38:06.286Z,23.80
2022-10-11T17:40:33.375Z,27.70
2022-10-11T17:43:00.904Z,27.70
2022-10-11T17:45:27.978Z,37.30
2022-10-11T17:47:54.718Z,43.90
2022-10-11T17:50:21.558Z,35.60
2022-10-11T17:52:49.115Z,36.00
2022-10-11T17:55:16.066Z,36.20
2022-10-11T17:57:42.902Z,26.70
2022-10-11T18:00:11.119Z,23.20
2022-10-11T18:02:40.286Z,28.10
2022-10-11T18:05:08.453Z,29.30
2022-10-11T18:07:35.291Z,31.70
2022-10-11T18:10:02.132Z,21.40
2022-10-11T18:12:30.307Z,19.50
2022-10-11T18:14:57.127Z,18.70
2022-10-11T18:17:23.993Z,18.50
2022-10-11T18:19:50.732Z,20.60
2022-10-11T18:22:17.574Z,22.90
2022-10-11T18:24:44.296Z,23.60
2022-10-11T18:27:11.056Z,25.70
2022-10-11T18:29:37.997Z,21.20
2022-10-11T18:32:04.898Z,23.40
2022-10-11T18:34:31.689Z,20.00
2022-10-11T18:36:58.524Z,19.20
2022-10-11T18:39:25.469Z,20.80
2022-10-11T18:41:52.517Z,19.80
2022-10-11T18:44:19.289Z,19.30
2022-10-11T18:46:46.408Z,23.20
2022-10-11T18:49:13.683Z,21.80
2022-10-11T18:51:42.447Z,22.80
2022-10-11T18:54:14.055Z,20.70
2022-10-11T18:56:44.118Z,19.70
2022-10-11T18:59:12.600Z,18.20
2022-10-11T19:01:44.183Z,42.90
2022-10-11T19:04:18.778Z,51.30
2022-10-11T19:06:48.853Z,53.50
2022-10-11T19:09:21.950Z,47.30
2022-10-11T19:11:51.305Z,95.80
2022-10-11T19:14:22.632Z,95.10
2022-10-11T19:16:51.639Z,226.70
2022-10-11T19:19:25.865Z,192.60
2022-10-11T19:21:53.297Z,183.80
2022-10-11T19:24:24.648Z,125.60
2022-10-11T19:26:53.703Z,96.50
2022-10-11T19:29:25.274Z,44.90
2022-10-11T19:31:56.148Z,35.50
2022-10-11T19:34:27.681Z,36.40
2022-10-11T19:37:00.909Z,50.40
2022-10-11T19:39:29.530Z,41.90
2022-10-11T19:41:56.503Z,37.80
2022-10-11T19:44:23.277Z,41.10
2022-10-11T19:46:52.304Z,38.50
2022-10-11T19:49:24.860Z,37.80
2022-10-11T19:51:53.394Z,30.00
2022-10-11T19:54:20.545Z,29.60
2022-10-11T19:56:47.775Z,31.80
2022-10-11T19:59:15.154Z,34.70
2022-10-11T20:01:43.838Z,34.00
2022-10-11T20:04:33.179Z,29.70
2022-10-11T20:06:59.848Z,30.10
2022-10-11T20:09:30.795Z,34.00
2022-10-11T20:11:58.958Z,47.20
2022-10-11T20:14:26.031Z,76.90
2022-10-11T20:16:52.962Z,72.40
2022-10-11T20:19:20.208Z,60.20
2022-10-11T20:21:47.760Z,71.00
2022-10-11T20:24:14.602Z,78.40
2022-10-11T20:26:41.337Z,86.80
2022-10-11T20:29:08.286Z,93.60
2022-10-11T20:31:40.968Z,102.80
2022-10-11T20:34:08.939Z,145.40
2022-10-11T20:36:36.483Z,165.60
2022-10-11T20:39:05.807Z,141.80
2022-10-11T20:41:37.339Z,137.00
2022-10-11T20:44:05.520Z,116.90
2022-10-11T20:46:39.180Z,132.70
2022-10-11T20:49:10.482Z,134.60
2022-10-11T20:51:40.019Z,142.60
2022-10-11T20:54:06.818Z,123.60
2022-10-11T20:56:34.480Z,123.30
2022-10-11T20:59:01.540Z,153.80
2022-10-11T21:01:35.470Z,169.40
2022-10-11T21:04:03.257Z,166.10
2022-10-11T21:06:33.099Z,123.90
2022-10-11T21:09:01.025Z,235.20
2022-10-11T21:11:31.350Z,218.10
2022-10-11T21:14:00.984Z,222.30
2022-10-11T21:16:28.749Z,185.20
2022-10-11T21:18:58.717Z,177.30
2022-10-11T21:21:27.170Z,226.60
2022-10-11T21:24:00.364Z,233.60
2022-10-11T21:26:28.222Z,207.60
2022-10-11T21:28:55.255Z,186.90
2022-10-11T21:31:23.962Z,170.10
2022-10-11T21:33:51.008Z,181.60
2022-10-11T21:36:21.638Z,172.80
2022-10-11T21:38:50.218Z,158.40
2022-10-11T21:41:21.024Z,160.80
2022-10-11T21:43:48.845Z,155.70
2022-10-11T21:46:47.480Z,142.60
2022-10-11T21:49:14.070Z,137.50
2022-10-11T21:51:40.890Z,147.50
2022-10-11T21:54:08.244Z,153.90
2022-10-11T21:56:35.393Z,154.90
2022-10-11T21:59:02.144Z,122.60
2022-10-11T22:01:29.548Z,126.70
2022-10-11T22:03:56.535Z,124.30
2022-10-11T22:06:23.858Z,103.70
2022-10-11T22:08:52.882Z,111.20
2022-10-11T22:11:19.725Z,106.00
2022-10-11T22:13:46.565Z,102.80
2022-10-11T22:16:14.127Z,101.50
2022-10-11T22:18:42.198Z,95.40
2022-10-11T22:21:19.688Z,87.40
2022-10-11T22:23:49.651Z,109.90
2022-10-11T22:26:23.049Z,100.40
2022-10-11T22:28:49.927Z,87.30
2022-10-11T22:31:19.298Z,81.10
2022-10-11T22:33:46.906Z,100.00
2022-10-11T22:36:14.041Z,91.40
2022-10-11T22:38:42.992Z,63.30
2022-10-11T22:41:10.381Z,63.50
2022-10-11T22:43:37.755Z,69.20
2022-10-11T22:46:06.420Z,69.00
2022-10-11T22:48:33.595Z,79.50
2022-10-11T22:51:00.697Z,83.50
2022-10-11T22:53:27.606Z,76.20
2022-10-11T22:55:55.135Z,69.70
2022-10-11T22:58:21.986Z,65.20
2022-10-11T23:00:48.725Z,75.40
2022-10-11T23:03:17.800Z,66.50
2022-10-11T23:05:50.192Z,67.10
2022-10-11T23:08:16.942Z,66.80
2022-10-11T23:10:43.671Z,67.80
2022-10-11T23:13:10.390Z,72.70
2022-10-11T23:15:41.054Z,72.20
2022-10-11T23:18:08.295Z,67.20
2022-10-11T23:20:35.239Z,68.20
2022-10-11T23:23:01.981Z,68.00
2022-10-11T23:25:28.741Z,63.20
2022-10-11T23:27:55.562Z,49.10
2022-10-11T23:30:22.403Z,49.90
2022-10-11T23:32:49.248Z,59.70
2022-10-11T23:35:16.816Z,54.90
2022-10-11T23:37:43.548Z,68.10
2022-10-11T23:40:10.563Z,73.10
2022-10-11T23:42:37.435Z,65.30
2022-10-11T23:45:05.225Z,60.20
2022-10-11T23:47:31.962Z,63.90
2022-10-11T23:49:58.780Z,47.70
2022-10-11T23:52:25.520Z,45.50
2022-10-11T23:54:52.282Z,41.10
2022-10-11T23:57:19.002Z,50.30
2022-10-11T23:59:45.707Z,43.60
